sensor_id;sensor_type;location;lat;lon;timestamp;temperature;humidity
65854;DHT22;52627;48.838;2.402;2024-02-26T00:01:34;9.10;89.89
65854;DHT22;52627;48.838;2.402;2024-02-26T00:04:02;9.10;89.90
65854;DHT22;52627;48.838;2.402;2024-02-26T00:06:30;9.12;89.90
65854;DHT22;52627;48.838;2.402;2024-02-26T00:08:58;9.12;89.92
65854;DHT22;52627;48.838;2.402;2024-02-26T00:11:26;9.14;89.91
65854;DHT22;52627;48.838;2.402;2024-02-26T00:13:54;9.15;89.93
65854;DHT22;52627;48.838;2.402;2024-02-26T00:16:21;9.16;89.99
65854;DHT22;52627;48.838;2.402;2024-02-26T00:18:49;9.17;89.99
65854;DHT22;52627;48.838;2.402;2024-02-26T00:21:17;9.19;90.00
65854;DHT22;52627;48.838;2.402;2024-02-26T00:23:45;9.20;90.01
65854;DHT22;52627;48.838;2.402;2024-02-26T00:26:12;9.22;90.02
65854;DHT22;52627;48.838;2.402;2024-02-26T00:28:40;9.23;90.03
65854;DHT22;52627;48.838;2.402;2024-02-26T00:31:07;9.25;90.04
65854;DHT22;52627;48.838;2.402;2024-02-26T00:33:35;9.28;90.08
65854;DHT22;52627;48.838;2.402;2024-02-26T00:36:03;9.28;90.10
65854;DHT22;52627;48.838;2.402;2024-02-26T00:38:31;9.30;90.10
65854;DHT22;52627;48.838;2.402;2024-02-26T00:40:59;9.32;90.10
65854;DHT22;52627;48.838;2.402;2024-02-26T00:43:26;9.33;90.10
65854;DHT22;52627;48.838;2.402;2024-02-26T00:45:54;9.34;90.11
65854;DHT22;52627;48.838;2.402;2024-02-26T00:48:21;9.35;90.12
65854;DHT22;52627;48.838;2.402;2024-02-26T00:50:49;9.36;90.13
65854;DHT22;52627;48.838;2.402;2024-02-26T00:53:17;9.38;90.12
65854;DHT22;52627;48.838;2.402;2024-02-26T00:55:44;9.39;90.13
65854;DHT22;52627;48.838;2.402;2024-02-26T00:58:12;9.40;90.15
65854;DHT22;52627;48.838;2.402;2024-02-26T01:00:39;9.41;90.18
65854;DHT22;52627;48.838;2.402;2024-02-26T01:03:07;9.43;90.20
65854;DHT22;52627;48.838;2.402;2024-02-26T01:05:35;9.43;90.20
65854;DHT22;52627;48.838;2.402;2024-02-26T01:08:03;9.44;90.20
65854;DHT22;52627;48.838;2.402;2024-02-26T01:10:31;9.45;90.21
65854;DHT22;52627;48.838;2.402;2024-02-26T01:12:59;9.46;90.22
65854;DHT22;52627;48.838;2.402;2024-02-26T01:15:27;9.46;90.26
65854;DHT22;52627;48.838;2.402;2024-02-26T01:17:55;9.47;90.26
65854;DHT22;52627;48.838;2.402;2024-02-26T01:20:23;9.47;90.30
65854;DHT22;52627;48.838;2.402;2024-02-26T01:22:50;9.48;90.30
65854;DHT22;52627;48.838;2.402;2024-02-26T01:25:18;9.48;90.30
65854;DHT22;52627;48.838;2.402;2024-02-26T01:27:45;9.49;90.30
65854;DHT22;52627;48.838;2.402;2024-02-26T01:30:13;9.50;90.31
65854;DHT22;52627;48.838;2.402;2024-02-26T01:32:43;9.51;90.32
65854;DHT22;52627;48.838;2.402;2024-02-26T01:35:11;9.52;90.34
65854;DHT22;52627;48.838;2.402;2024-02-26T01:37:39;9.52;90.38
65854;DHT22;52627;48.838;2.402;2024-02-26T01:40:07;9.53;90.38
65854;DHT22;52627;48.838;2.402;2024-02-26T01:42:39;9.53;90.40
65854;DHT22;52627;48.838;2.402;2024-02-26T01:45:09;9.55;90.40
65854;DHT22;52627;48.838;2.402;2024-02-26T01:47:51;9.56;90.39
65854;DHT22;52627;48.838;2.402;2024-02-26T01:50:21;9.55;90.40
65854;DHT22;52627;48.838;2.402;2024-02-26T01:52:49;9.56;90.41
65854;DHT22;52627;48.838;2.402;2024-02-26T01:55:18;9.56;90.42
65854;DHT22;52627;48.838;2.402;2024-02-26T01:57:47;9.57;90.40
65854;DHT22;52627;48.838;2.402;2024-02-26T02:00:16;9.57;90.40
65854;DHT22;52627;48.838;2.402;2024-02-26T02:02:46;9.56;90.40
65854;DHT22;52627;48.838;2.402;2024-02-26T02:05:15;9.56;90.40
65854;DHT22;52627;48.838;2.402;2024-02-26T02:07:47;9.56;90.40
65854;DHT22;52627;48.838;2.402;2024-02-26T02:10:16;9.57;90.40
65854;DHT22;52627;48.838;2.402;2024-02-26T02:12:50;9.56;90.40
65854;DHT22;52627;48.838;2.402;2024-02-26T02:15:19;9.56;90.41
65854;DHT22;52627;48.838;2.402;2024-02-26T02:17:47;9.56;90.40
65854;DHT22;52627;48.838;2.402;2024-02-26T02:20:16;9.57;90.41
65854;DHT22;52627;48.838;2.402;2024-02-26T02:22:46;9.57;90.40
65854;DHT22;52627;48.838;2.402;2024-02-26T02:25:14;9.57;90.41
65854;DHT22;52627;48.838;2.402;2024-02-26T02:27:41;9.57;90.40
65854;DHT22;52627;48.838;2.402;2024-02-26T02:30:10;9.58;90.41
65854;DHT22;52627;48.838;2.402;2024-02-26T02:32:39;9.58;90.40
65854;DHT22;52627;48.838;2.402;2024-02-26T02:35:10;9.57;90.40
65854;DHT22;52627;48.838;2.402;2024-02-26T02:37:38;9.58;90.40
65854;DHT22;52627;48.838;2.402;2024-02-26T02:40:06;9.58;90.40
65854;DHT22;52627;48.838;2.402;2024-02-26T02:42:34;9.58;90.40
65854;DHT22;52627;48.838;2.402;2024-02-26T02:45:02;9.58;90.39
65854;DHT22;52627;48.838;2.402;2024-02-26T02:47:29;9.59;90.40
65854;DHT22;52627;48.838;2.402;2024-02-26T02:49:57;9.58;90.37
65854;DHT22;52627;48.838;2.402;2024-02-26T02:52:24;9.58;90.34
65854;DHT22;52627;48.838;2.402;2024-02-26T02:54:52;9.57;90.33
65854;DHT22;52627;48.838;2.402;2024-02-26T02:57:19;9.56;90.31
65854;DHT22;52627;48.838;2.402;2024-02-26T02:59:47;9.56;90.36
65854;DHT22;52627;48.838;2.402;2024-02-26T03:02:14;9.56;90.33
65854;DHT22;52627;48.838;2.402;2024-02-26T03:04:42;9.57;90.31
65854;DHT22;52627;48.838;2.402;2024-02-26T03:07:10;9.57;90.30
65854;DHT22;52627;48.838;2.402;2024-02-26T03:09:37;9.56;90.31
65854;DHT22;52627;48.838;2.402;2024-02-26T03:12:05;9.54;90.30
65854;DHT22;52627;48.838;2.402;2024-02-26T03:14:32;9.54;90.30
65854;DHT22;52627;48.838;2.402;2024-02-26T03:17:00;9.53;90.29
65854;DHT22;52627;48.838;2.402;2024-02-26T03:19:28;9.53;90.29
65854;DHT22;52627;48.838;2.402;2024-02-26T03:21:55;9.53;90.30
65854;DHT22;52627;48.838;2.402;2024-02-26T03:24:23;9.53;90.30
65854;DHT22;52627;48.838;2.402;2024-02-26T03:26:51;9.52;90.30
65854;DHT22;52627;48.838;2.402;2024-02-26T03:29:19;9.51;90.29
65854;DHT22;52627;48.838;2.402;2024-02-26T03:31:47;9.51;90.28
65854;DHT22;52627;48.838;2.402;2024-02-26T03:34:14;9.51;90.30
65854;DHT22;52627;48.838;2.402;2024-02-26T03:36:42;9.51;90.29
65854;DHT22;52627;48.838;2.402;2024-02-26T03:39:10;9.50;90.24
65854;DHT22;52627;48.838;2.402;2024-02-26T03:41:38;9.50;90.29
65854;DHT22;52627;48.838;2.402;2024-02-26T03:44:05;9.49;90.30
65854;DHT22;52627;48.838;2.402;2024-02-26T03:46:33;9.48;90.22
65854;DHT22;52627;48.838;2.402;2024-02-26T03:49:00;9.47;90.27
65854;DHT22;52627;48.838;2.402;2024-02-26T03:51:28;9.46;90.30
65854;DHT22;52627;48.838;2.402;2024-02-26T03:53:58;9.45;90.27
65854;DHT22;52627;48.838;2.402;2024-02-26T03:56:26;9.44;90.30
65854;DHT22;52627;48.838;2.402;2024-02-26T03:58:54;9.44;90.30
65854;DHT22;52627;48.838;2.402;2024-02-26T04:01:22;9.44;90.30
65854;DHT22;52627;48.838;2.402;2024-02-26T04:03:49;9.43;90.30
65854;DHT22;52627;48.838;2.402;2024-02-26T04:06:17;9.44;90.30
65854;DHT22;52627;48.838;2.402;2024-02-26T04:08:47;9.43;90.29
65854;DHT22;52627;48.838;2.402;2024-02-26T04:11:14;9.43;90.30
65854;DHT22;52627;48.838;2.402;2024-02-26T04:13:45;9.44;90.30
65854;DHT22;52627;48.838;2.402;2024-02-26T04:16:19;9.44;90.30
65854;DHT22;52627;48.838;2.402;2024-02-26T04:18:47;9.44;90.30
65854;DHT22;52627;48.838;2.402;2024-02-26T04:21:14;9.43;90.30
65854;DHT22;52627;48.838;2.402;2024-02-26T04:23:42;9.43;90.30
65854;DHT22;52627;48.838;2.402;2024-02-26T04:26:10;9.44;90.30
65854;DHT22;52627;48.838;2.402;2024-02-26T04:28:37;9.44;90.30
65854;DHT22;52627;48.838;2.402;2024-02-26T04:31:05;9.44;90.30
65854;DHT22;52627;48.838;2.402;2024-02-26T04:33:33;9.43;90.30
65854;DHT22;52627;48.838;2.402;2024-02-26T04:36:02;9.42;90.30
65854;DHT22;52627;48.838;2.402;2024-02-26T04:38:30;9.43;90.30
65854;DHT22;52627;48.838;2.402;2024-02-26T04:40:58;9.43;90.30
65854;DHT22;52627;48.838;2.402;2024-02-26T04:43:26;9.43;90.30
65854;DHT22;52627;48.838;2.402;2024-02-26T04:45:53;9.42;90.28
65854;DHT22;52627;48.838;2.402;2024-02-26T04:48:21;9.41;90.28
65854;DHT22;52627;48.838;2.402;2024-02-26T04:50:50;9.40;90.26
65854;DHT22;52627;48.838;2.402;2024-02-26T04:53:18;9.39;90.23
65854;DHT22;52627;48.838;2.402;2024-02-26T04:55:45;9.38;90.28
65854;DHT22;52627;48.838;2.402;2024-02-26T04:58:12;9.37;90.27
65854;DHT22;52627;48.838;2.402;2024-02-26T05:00:40;9.36;90.27
65854;DHT22;52627;48.838;2.402;2024-02-26T05:03:08;9.36;90.25
65854;DHT22;52627;48.838;2.402;2024-02-26T05:05:40;9.35;90.27
65854;DHT22;52627;48.838;2.402;2024-02-26T05:08:08;9.35;90.26
65854;DHT22;52627;48.838;2.402;2024-02-26T05:10:37;9.35;90.28
65854;DHT22;52627;48.838;2.402;2024-02-26T05:13:08;9.35;90.30
65854;DHT22;52627;48.838;2.402;2024-02-26T05:15:35;9.35;90.29
65854;DHT22;52627;48.838;2.402;2024-02-26T05:18:03;9.35;90.28
65854;DHT22;52627;48.838;2.402;2024-02-26T05:20:31;9.36;90.30
65854;DHT22;52627;48.838;2.402;2024-02-26T05:23:02;9.36;90.30
65854;DHT22;52627;48.838;2.402;2024-02-26T05:25:31;9.37;90.30
65854;DHT22;52627;48.838;2.402;2024-02-26T05:27:58;9.37;90.29
65854;DHT22;52627;48.838;2.402;2024-02-26T05:30:26;9.38;90.30
65854;DHT22;52627;48.838;2.402;2024-02-26T05:32:57;9.38;90.30
65854;DHT22;52627;48.838;2.402;2024-02-26T05:35:24;9.38;90.28
65854;DHT22;52627;48.838;2.402;2024-02-26T05:37:53;9.37;90.30
65854;DHT22;52627;48.838;2.402;2024-02-26T05:40:21;9.38;90.30
65854;DHT22;52627;48.838;2.402;2024-02-26T05:42:48;9.37;90.29
65854;DHT22;52627;48.838;2.402;2024-02-26T05:45:16;9.37;90.30
65854;DHT22;52627;48.838;2.402;2024-02-26T05:47:44;9.37;90.30
65854;DHT22;52627;48.838;2.402;2024-02-26T05:50:12;9.38;90.29
65854;DHT22;52627;48.838;2.402;2024-02-26T05:52:40;9.38;90.30
65854;DHT22;52627;48.838;2.402;2024-02-26T05:55:08;9.36;90.29
65854;DHT22;52627;48.838;2.402;2024-02-26T05:57:36;9.37;90.31
65854;DHT22;52627;48.838;2.402;2024-02-26T06:00:03;9.37;90.30
65854;DHT22;52627;48.838;2.402;2024-02-26T06:02:32;9.38;90.30
65854;DHT22;52627;48.838;2.402;2024-02-26T06:04:59;9.38;90.30
65854;DHT22;52627;48.838;2.402;2024-02-26T06:07:27;9.37;90.30
65854;DHT22;52627;48.838;2.402;2024-02-26T06:09:54;9.37;90.30
65854;DHT22;52627;48.838;2.402;2024-02-26T06:12:22;9.35;90.30
65854;DHT22;52627;48.838;2.402;2024-02-26T06:14:49;9.35;90.30
65854;DHT22;52627;48.838;2.402;2024-02-26T06:17:17;9.34;90.31
65854;DHT22;52627;48.838;2.402;2024-02-26T06:19:44;9.35;90.30
65854;DHT22;52627;48.838;2.402;2024-02-26T06:22:12;9.33;90.29
65854;DHT22;52627;48.838;2.402;2024-02-26T06:24:39;9.32;90.30
65854;DHT22;52627;48.838;2.402;2024-02-26T06:27:07;9.31;90.30
65854;DHT22;52627;48.838;2.402;2024-02-26T06:29:35;9.31;90.33
65854;DHT22;52627;48.838;2.402;2024-02-26T06:32:03;9.30;90.31
65854;DHT22;52627;48.838;2.402;2024-02-26T06:34:31;9.30;90.31
65854;DHT22;52627;48.838;2.402;2024-02-26T06:36:59;9.29;90.33
65854;DHT22;52627;48.838;2.402;2024-02-26T06:39:26;9.29;90.31
65854;DHT22;52627;48.838;2.402;2024-02-26T06:41:54;9.27;90.33
65854;DHT22;52627;48.838;2.402;2024-02-26T06:44:27;9.27;90.35
65854;DHT22;52627;48.838;2.402;2024-02-26T06:47:01;9.26;90.37
65854;DHT22;52627;48.838;2.402;2024-02-26T06:49:29;9.26;90.39
65854;DHT22;52627;48.838;2.402;2024-02-26T06:51:56;9.27;90.40
65854;DHT22;52627;48.838;2.402;2024-02-26T06:54:24;9.28;90.40
65854;DHT22;52627;48.838;2.402;2024-02-26T06:56:52;9.28;90.40
65854;DHT22;52627;48.838;2.402;2024-02-26T06:59:19;9.29;90.40
65854;DHT22;52627;48.838;2.402;2024-02-26T07:01:47;9.29;90.40
65854;DHT22;52627;48.838;2.402;2024-02-26T07:04:15;9.30;90.40
65854;DHT22;52627;48.838;2.402;2024-02-26T07:06:42;9.30;90.40
65854;DHT22;52627;48.838;2.402;2024-02-26T07:09:11;9.31;90.40
65854;DHT22;52627;48.838;2.402;2024-02-26T07:11:39;9.32;90.40
65854;DHT22;52627;48.838;2.402;2024-02-26T07:14:11;9.32;90.40
65854;DHT22;52627;48.838;2.402;2024-02-26T07:16:39;9.31;90.34
65854;DHT22;52627;48.838;2.402;2024-02-26T07:19:07;9.31;90.40
65854;DHT22;52627;48.838;2.402;2024-02-26T07:21:35;9.32;90.38
65854;DHT22;52627;48.838;2.402;2024-02-26T07:24:02;9.32;90.33
65854;DHT22;52627;48.838;2.402;2024-02-26T07:26:30;9.34;90.36
65854;DHT22;52627;48.838;2.402;2024-02-26T07:28:58;9.34;90.32
65854;DHT22;52627;48.838;2.402;2024-02-26T07:31:25;9.35;90.30
65854;DHT22;52627;48.838;2.402;2024-02-26T07:33:53;9.36;90.36
65854;DHT22;52627;48.838;2.402;2024-02-26T07:36:21;9.39;90.37
65854;DHT22;52627;48.838;2.402;2024-02-26T07:38:49;9.42;90.38
65854;DHT22;52627;48.838;2.402;2024-02-26T07:41:16;9.45;90.39
65854;DHT22;52627;48.838;2.402;2024-02-26T07:43:44;9.46;90.35
65854;DHT22;52627;48.838;2.402;2024-02-26T07:46:12;9.49;90.31
65854;DHT22;52627;48.838;2.402;2024-02-26T07:48:40;9.50;90.30
65854;DHT22;52627;48.838;2.402;2024-02-26T07:51:11;9.51;90.30
65854;DHT22;52627;48.838;2.402;2024-02-26T07:53:41;9.52;90.31
65854;DHT22;52627;48.838;2.402;2024-02-26T07:56:09;9.53;90.30
65854;DHT22;52627;48.838;2.402;2024-02-26T07:58:36;9.56;90.26
65854;DHT22;52627;48.838;2.402;2024-02-26T08:01:04;9.56;90.24
65854;DHT22;52627;48.838;2.402;2024-02-26T08:03:31;9.58;90.23
65854;DHT22;52627;48.838;2.402;2024-02-26T08:05:59;9.61;90.29
65854;DHT22;52627;48.838;2.402;2024-02-26T08:08:27;9.62;90.23
65854;DHT22;52627;48.838;2.402;2024-02-26T08:10:54;9.64;90.22
65854;DHT22;52627;48.838;2.402;2024-02-26T08:13:22;9.64;90.20
65854;DHT22;52627;48.838;2.402;2024-02-26T08:15:49;9.62;90.13
65854;DHT22;52627;48.838;2.402;2024-02-26T08:18:17;9.62;90.10
65854;DHT22;52627;48.838;2.402;2024-02-26T08:20:46;9.61;90.10
65854;DHT22;52627;48.838;2.402;2024-02-26T08:23:17;9.62;90.10
65854;DHT22;52627;48.838;2.402;2024-02-26T08:25:45;9.65;90.15
65854;DHT22;52627;48.838;2.402;2024-02-26T08:28:12;9.68;90.16
65854;DHT22;52627;48.838;2.402;2024-02-26T08:30:41;9.71;90.17
65854;DHT22;52627;48.838;2.402;2024-02-26T08:33:08;9.74;90.15
65854;DHT22;52627;48.838;2.402;2024-02-26T08:35:37;9.76;90.10
65854;DHT22;52627;48.838;2.402;2024-02-26T08:38:05;9.75;90.08
65854;DHT22;52627;48.838;2.402;2024-02-26T08:40:32;9.76;90.01
65854;DHT22;52627;48.838;2.402;2024-02-26T08:42:59;9.75;90.00
65854;DHT22;52627;48.838;2.402;2024-02-26T08:45:27;9.79;90.05
65854;DHT22;52627;48.838;2.402;2024-02-26T08:47:56;9.84;90.08
65854;DHT22;52627;48.838;2.402;2024-02-26T08:50:26;9.92;90.10
65854;DHT22;52627;48.838;2.402;2024-02-26T08:52:54;10.00;90.14
65854;DHT22;52627;48.838;2.402;2024-02-26T08:55:21;10.07;90.18
65854;DHT22;52627;48.838;2.402;2024-02-26T08:57:49;10.15;90.19
65854;DHT22;52627;48.838;2.402;2024-02-26T09:00:16;10.19;90.12
65854;DHT22;52627;48.838;2.402;2024-02-26T09:02:47;10.20;90.07
65854;DHT22;52627;48.838;2.402;2024-02-26T09:05:16;10.21;90.00
65854;DHT22;52627;48.838;2.402;2024-02-26T09:07:44;10.24;90.01
65854;DHT22;52627;48.838;2.402;2024-02-26T09:10:13;10.25;90.00
65854;DHT22;52627;48.838;2.402;2024-02-26T09:12:41;10.25;89.93
65854;DHT22;52627;48.838;2.402;2024-02-26T09:15:09;10.24;89.84
65854;DHT22;52627;48.838;2.402;2024-02-26T09:17:37;10.23;89.82
65854;DHT22;52627;48.838;2.402;2024-02-26T09:20:04;10.23;89.81
65854;DHT22;52627;48.838;2.402;2024-02-26T09:22:33;10.25;89.80
65854;DHT22;52627;48.838;2.402;2024-02-26T09:25:02;10.29;89.80
65854;DHT22;52627;48.838;2.402;2024-02-26T09:27:30;10.34;89.80
65854;DHT22;52627;48.838;2.402;2024-02-26T09:29:58;10.42;89.79
65854;DHT22;52627;48.838;2.402;2024-02-26T09:32:25;10.49;89.70
65854;DHT22;52627;48.838;2.402;2024-02-26T09:34:53;10.57;89.64
65854;DHT22;52627;48.838;2.402;2024-02-26T09:37:21;10.64;89.59
65854;DHT22;52627;48.838;2.402;2024-02-26T09:39:48;10.70;89.55
65854;DHT22;52627;48.838;2.402;2024-02-26T09:42:17;10.77;89.52
65854;DHT22;52627;48.838;2.402;2024-02-26T09:44:46;10.81;89.46
65854;DHT22;52627;48.838;2.402;2024-02-26T09:47:20;10.86;89.40
65854;DHT22;52627;48.838;2.402;2024-02-26T09:49:50;10.92;89.40
65854;DHT22;52627;48.838;2.402;2024-02-26T09:52:20;10.99;89.36
65854;DHT22;52627;48.838;2.402;2024-02-26T09:54:50;11.03;89.28
65854;DHT22;52627;48.838;2.402;2024-02-26T09:57:18;11.06;89.19
65854;DHT22;52627;48.838;2.402;2024-02-26T09:59:46;11.10;89.18
65854;DHT22;52627;48.838;2.402;2024-02-26T10:02:16;11.13;89.15
65854;DHT22;52627;48.838;2.402;2024-02-26T10:04:46;11.18;89.17
65854;DHT22;52627;48.838;2.402;2024-02-26T10:07:18;11.21;89.11
65854;DHT22;52627;48.838;2.402;2024-02-26T10:09:46;11.25;89.11
65854;DHT22;52627;48.838;2.402;2024-02-26T10:12:14;11.32;89.05
65854;DHT22;52627;48.838;2.402;2024-02-26T10:14:44;11.35;88.92
65854;DHT22;52627;48.838;2.402;2024-02-26T10:17:12;11.41;88.86
65854;DHT22;52627;48.838;2.402;2024-02-26T10:19:40;11.45;88.72
65854;DHT22;52627;48.838;2.402;2024-02-26T10:22:08;11.45;88.57
65854;DHT22;52627;48.838;2.402;2024-02-26T10:24:35;11.43;88.41
65854;DHT22;52627;48.838;2.402;2024-02-26T10:27:04;11.38;88.19
65854;DHT22;52627;48.838;2.402;2024-02-26T10:29:32;11.39;88.26
65854;DHT22;52627;48.838;2.402;2024-02-26T10:32:00;11.45;88.31
65854;DHT22;52627;48.838;2.402;2024-02-26T10:34:28;11.48;88.08
65854;DHT22;52627;48.838;2.402;2024-02-26T10:36:56;11.48;87.81
65854;DHT22;52627;48.838;2.402;2024-02-26T10:39:23;11.54;87.93
65854;DHT22;52627;48.838;2.402;2024-02-26T10:41:51;11.60;87.79
65854;DHT22;52627;48.838;2.402;2024-02-26T10:44:19;11.61;87.52
65854;DHT22;52627;48.838;2.402;2024-02-26T10:46:47;11.67;87.59
65854;DHT22;52627;48.838;2.402;2024-02-26T10:49:17;11.76;87.59
65854;DHT22;52627;48.838;2.402;2024-02-26T10:51:51;11.77;87.30
65854;DHT22;52627;48.838;2.402;2024-02-26T10:54:21;11.77;87.05
65854;DHT22;52627;48.838;2.402;2024-02-26T10:56:54;11.79;87.00
65854;DHT22;52627;48.838;2.402;2024-02-26T10:59:24;11.84;87.07
65854;DHT22;52627;48.838;2.402;2024-02-26T11:01:53;11.89;87.02
65854;DHT22;52627;48.838;2.402;2024-02-26T11:04:23;11.97;87.09
65854;DHT22;52627;48.838;2.402;2024-02-26T11:06:52;12.03;87.01
65854;DHT22;52627;48.838;2.402;2024-02-26T11:09:23;12.10;86.85
65854;DHT22;52627;48.838;2.402;2024-02-26T11:11:52;12.10;86.49
65854;DHT22;52627;48.838;2.402;2024-02-26T11:14:22;12.10;86.35
65854;DHT22;52627;48.838;2.402;2024-02-26T11:16:54;12.07;86.05
65854;DHT22;52627;48.838;2.402;2024-02-26T11:19:23;12.06;86.16
65854;DHT22;52627;48.838;2.402;2024-02-26T11:21:53;12.09;86.30
65854;DHT22;52627;48.838;2.402;2024-02-26T11:24:20;12.12;86.30
65854;DHT22;52627;48.838;2.402;2024-02-26T11:26:50;12.13;86.19
65854;DHT22;52627;48.838;2.402;2024-02-26T11:29:29;12.12;86.05
65854;DHT22;52627;48.838;2.402;2024-02-26T11:32:06;12.11;86.10
65854;DHT22;52627;48.838;2.402;2024-02-26T11:34:34;12.14;86.20
65854;DHT22;52627;48.838;2.402;2024-02-26T11:37:10;12.17;86.21
65854;DHT22;52627;48.838;2.402;2024-02-26T11:39:43;12.20;86.22
65854;DHT22;52627;48.838;2.402;2024-02-26T11:42:16;12.23;86.20
65854;DHT22;52627;48.838;2.402;2024-02-26T11:44:44;12.28;86.20
65854;DHT22;52627;48.838;2.402;2024-02-26T11:47:12;12.33;86.22
65854;DHT22;52627;48.838;2.402;2024-02-26T11:49:49;12.39;86.27
65854;DHT22;52627;48.838;2.402;2024-02-26T11:52:17;12.43;86.27
65854;DHT22;52627;48.838;2.402;2024-02-26T11:54:48;12.45;86.30
65854;DHT22;52627;48.838;2.402;2024-02-26T11:59:53;12.40;86.10
65854;DHT22;52627;48.838;2.402;2024-02-26T12:02:40;12.36;86.03
65854;DHT22;52627;48.838;2.402;2024-02-26T12:05:21;12.29;85.92
65854;DHT22;52627;48.838;2.402;2024-02-26T12:08:14;12.23;85.90
65854;DHT22;52627;48.838;2.402;2024-02-26T12:10:44;12.17;85.89
65854;DHT22;52627;48.838;2.402;2024-02-26T12:13:12;12.06;85.80
65854;DHT22;52627;48.838;2.402;2024-02-26T12:15:56;11.94;85.78
65854;DHT22;52627;48.838;2.402;2024-02-26T12:18:25;11.82;85.79
65854;DHT22;52627;48.838;2.402;2024-02-26T12:21:00;11.73;85.82
65854;DHT22;52627;48.838;2.402;2024-02-26T12:23:32;11.63;85.82
65854;DHT22;52627;48.838;2.402;2024-02-26T12:25:59;11.53;85.80
65854;DHT22;52627;48.838;2.402;2024-02-26T12:28:33;11.45;85.80
65854;DHT22;52627;48.838;2.402;2024-02-26T12:31:01;11.35;85.80
65854;DHT22;52627;48.838;2.402;2024-02-26T12:33:28;11.22;85.79
65854;DHT22;52627;48.838;2.402;2024-02-26T12:35:58;11.12;85.92
65854;DHT22;52627;48.838;2.402;2024-02-26T12:38:26;11.02;86.05
65854;DHT22;52627;48.838;2.402;2024-02-26T12:40:54;10.94;86.20
65854;DHT22;52627;48.838;2.402;2024-02-26T12:43:22;10.85;86.29
65854;DHT22;52627;48.838;2.402;2024-02-26T12:45:49;10.77;86.40
65854;DHT22;52627;48.838;2.402;2024-02-26T12:48:17;10.70;86.40
65854;DHT22;52627;48.838;2.402;2024-02-26T12:50:45;10.62;86.48
65854;DHT22;52627;48.838;2.402;2024-02-26T12:53:17;10.55;86.50
65854;DHT22;52627;48.838;2.402;2024-02-26T12:55:45;10.45;86.52
65854;DHT22;52627;48.838;2.402;2024-02-26T12:58:12;10.38;86.60
65854;DHT22;52627;48.838;2.402;2024-02-26T13:00:41;10.30;86.71
65854;DHT22;52627;48.838;2.402;2024-02-26T13:03:09;10.25;86.78
65854;DHT22;52627;48.838;2.402;2024-02-26T13:05:37;10.19;86.82
65854;DHT22;52627;48.838;2.402;2024-02-26T13:08:05;10.10;86.86
65854;DHT22;52627;48.838;2.402;2024-02-26T13:10:36;10.05;86.99
65854;DHT22;52627;48.838;2.402;2024-02-26T13:13:04;9.99;87.04
65854;DHT22;52627;48.838;2.402;2024-02-26T13:15:32;9.97;87.10
65854;DHT22;52627;48.838;2.402;2024-02-26T13:18:08;9.95;87.10
65854;DHT22;52627;48.838;2.402;2024-02-26T13:20:38;9.94;87.20
65854;DHT22;52627;48.838;2.402;2024-02-26T13:23:13;9.93;87.21
65854;DHT22;52627;48.838;2.402;2024-02-26T13:25:41;9.92;87.27
65854;DHT22;52627;48.838;2.402;2024-02-26T13:28:15;9.92;87.30
65854;DHT22;52627;48.838;2.402;2024-02-26T13:30:54;9.90;87.30
65854;DHT22;52627;48.838;2.402;2024-02-26T13:33:24;9.88;87.30
65854;DHT22;52627;48.838;2.402;2024-02-26T13:35:57;9.87;87.31
65854;DHT22;52627;48.838;2.402;2024-02-26T13:38:27;9.90;87.33
65854;DHT22;52627;48.838;2.402;2024-02-26T13:40:58;9.90;87.29
65854;DHT22;52627;48.838;2.402;2024-02-26T13:43:25;9.86;87.26
65854;DHT22;52627;48.838;2.402;2024-02-26T13:45:52;9.87;87.24
65854;DHT22;52627;48.838;2.402;2024-02-26T13:48:20;9.87;87.24
65854;DHT22;52627;48.838;2.402;2024-02-26T13:50:48;9.88;87.29
65854;DHT22;52627;48.838;2.402;2024-02-26T13:53:16;9.91;87.30
65854;DHT22;52627;48.838;2.402;2024-02-26T13:55:44;9.93;87.29
65854;DHT22;52627;48.838;2.402;2024-02-26T13:58:12;9.94;87.27
65854;DHT22;52627;48.838;2.402;2024-02-26T14:00:41;9.97;87.23
65854;DHT22;52627;48.838;2.402;2024-02-26T14:03:10;9.98;87.22
65854;DHT22;52627;48.838;2.402;2024-02-26T14:05:38;10.00;87.20
65854;DHT22;52627;48.838;2.402;2024-02-26T14:08:06;10.00;87.20
65854;DHT22;52627;48.838;2.402;2024-02-26T14:10:34;10.00;87.19
65854;DHT22;52627;48.838;2.402;2024-02-26T14:13:01;10.02;87.20
65854;DHT22;52627;48.838;2.402;2024-02-26T14:15:29;10.00;87.15
65854;DHT22;52627;48.838;2.402;2024-02-26T14:17:59;9.98;87.09
65854;DHT22;52627;48.838;2.402;2024-02-26T14:20:27;9.94;87.00
65854;DHT22;52627;48.838;2.402;2024-02-26T14:22:54;9.92;87.00
65854;DHT22;52627;48.838;2.402;2024-02-26T14:25:22;9.90;86.95
65854;DHT22;52627;48.838;2.402;2024-02-26T14:27:50;9.87;86.90
65854;DHT22;52627;48.838;2.402;2024-02-26T14:30:17;9.84;86.89
65854;DHT22;52627;48.838;2.402;2024-02-26T14:32:45;9.80;86.85
65854;DHT22;52627;48.838;2.402;2024-02-26T14:35:13;9.78;86.83
65854;DHT22;52627;48.838;2.402;2024-02-26T14:37:44;9.74;86.80
65854;DHT22;52627;48.838;2.402;2024-02-26T14:40:16;9.71;86.80
65854;DHT22;52627;48.838;2.402;2024-02-26T14:42:44;9.70;86.81
65854;DHT22;52627;48.838;2.402;2024-02-26T14:45:12;9.68;86.81
65854;DHT22;52627;48.838;2.402;2024-02-26T14:47:40;9.67;86.85
65854;DHT22;52627;48.838;2.402;2024-02-26T14:50:07;9.65;86.82
65854;DHT22;52627;48.838;2.402;2024-02-26T14:52:36;9.62;86.80
65854;DHT22;52627;48.838;2.402;2024-02-26T14:55:03;9.56;86.73
65854;DHT22;52627;48.838;2.402;2024-02-26T14:57:32;9.52;86.74
65854;DHT22;52627;48.838;2.402;2024-02-26T15:00:00;9.48;86.69
65854;DHT22;52627;48.838;2.402;2024-02-26T15:02:28;9.42;86.70
65854;DHT22;52627;48.838;2.402;2024-02-26T15:04:55;9.39;86.70
65854;DHT22;52627;48.838;2.402;2024-02-26T15:07:23;9.35;86.68
65854;DHT22;52627;48.838;2.402;2024-02-26T15:09:51;9.31;86.66
65854;DHT22;52627;48.838;2.402;2024-02-26T15:12:23;9.27;86.70
65854;DHT22;52627;48.838;2.402;2024-02-26T15:14:53;9.23;86.63
65854;DHT22;52627;48.838;2.402;2024-02-26T15:17:20;9.17;86.60
65854;DHT22;52627;48.838;2.402;2024-02-26T15:19:48;9.12;86.60
65854;DHT22;52627;48.838;2.402;2024-02-26T15:22:16;9.07;86.56
65854;DHT22;52627;48.838;2.402;2024-02-26T15:24:43;9.02;86.51
65854;DHT22;52627;48.838;2.402;2024-02-26T15:27:11;8.98;86.50
65854;DHT22;52627;48.838;2.402;2024-02-26T15:29:39;8.95;86.50
65854;DHT22;52627;48.838;2.402;2024-02-26T15:32:07;8.90;86.49
65854;DHT22;52627;48.838;2.402;2024-02-26T15:34:34;8.88;86.50
65854;DHT22;52627;48.838;2.402;2024-02-26T15:37:03;8.86;86.50
65854;DHT22;52627;48.838;2.402;2024-02-26T15:39:31;8.84;86.50
65854;DHT22;52627;48.838;2.402;2024-02-26T15:41:59;8.82;86.50
65854;DHT22;52627;48.838;2.402;2024-02-26T15:44:29;8.81;86.50
65854;DHT22;52627;48.838;2.402;2024-02-26T15:46:57;8.79;86.50
65854;DHT22;52627;48.838;2.402;2024-02-26T15:49:25;8.75;86.50
65854;DHT22;52627;48.838;2.402;2024-02-26T15:51:53;8.72;86.50
65854;DHT22;52627;48.838;2.402;2024-02-26T15:54:20;8.70;86.49